sensor_id;sensor_type;location;lat;lon;timestamp;pressure;altitude;pressure_sealevel;temperature;humidity
45369;BME280;51342;55.250;37.668;2023-04-19T00:00:04;100412.63;;;8.91;47.62
45369;BME280;51342;55.250;37.668;2023-04-19T00:02:38;100403.75;;;8.88;47.49
45369;BME280;51342;55.250;37.668;2023-04-19T00:05:11;100415.22;;;8.91;47.79
45369;BME280;51342;55.250;37.668;2023-04-19T00:07:43;100412.50;;;8.90;47.39
45369;BME280;51342;55.250;37.668;2023-04-19T00:10:14;100414.06;;;8.88;47.70
45369;BME280;51342;55.250;37.668;2023-04-19T00:12:45;100408.66;;;8.85;47.54
45369;BME280;51342;55.250;37.668;2023-04-19T00:15:18;100413.63;;;8.82;47.81
45369;BME280;51342;55.250;37.668;2023-04-19T00:17:50;100409.91;;;8.78;47.75
45369;BME280;51342;55.250;37.668;2023-04-19T00:20:21;100418.31;;;8.75;47.94
45369;BME280;51342;55.250;37.668;2023-04-19T00:22:52;100417.16;;;8.72;47.78
45369;BME280;51342;55.250;37.668;2023-04-19T00:25:24;100412.69;;;8.69;48.11
45369;BME280;51342;55.250;37.668;2023-04-19T00:27:55;100410.75;;;8.67;47.82
45369;BME280;51342;55.250;37.668;2023-04-19T00:30:26;100408.19;;;8.67;47.54
45369;BME280;51342;55.250;37.668;2023-04-19T00:32:57;100402.91;;;8.65;47.77
45369;BME280;51342;55.250;37.668;2023-04-19T00:35:28;100405.38;;;8.64;47.69
45369;BME280;51342;55.250;37.668;2023-04-19T00:38:00;100404.34;;;8.62;47.98
45369;BME280;51342;55.250;37.668;2023-04-19T00:40:31;100405.94;;;8.60;47.67
45369;BME280;51342;55.250;37.668;2023-04-19T00:43:02;100410.97;;;8.58;47.85
45369;BME280;51342;55.250;37.668;2023-04-19T00:45:34;100409.03;;;8.56;47.87
45369;BME280;51342;55.250;37.668;2023-04-19T00:48:06;100420.94;;;8.54;47.97
45369;BME280;51342;55.250;37.668;2023-04-19T00:50:37;100411.31;;;8.51;47.87
45369;BME280;51342;55.250;37.668;2023-04-19T00:53:09;100416.31;;;8.49;47.97
45369;BME280;51342;55.250;37.668;2023-04-19T00:55:40;100424.63;;;8.45;48.19
45369;BME280;51342;55.250;37.668;2023-04-19T00:58:14;100426.06;;;8.42;48.06
45369;BME280;51342;55.250;37.668;2023-04-19T01:00:45;100427.38;;;8.37;48.10
45369;BME280;51342;55.250;37.668;2023-04-19T01:03:17;100425.19;;;8.31;48.23
45369;BME280;51342;55.250;37.668;2023-04-19T01:05:48;100425.72;;;8.27;48.13
45369;BME280;51342;55.250;37.668;2023-04-19T01:08:19;100427.19;;;8.23;48.40
45369;BME280;51342;55.250;37.668;2023-04-19T01:10:50;100425.25;;;8.21;48.37
45369;BME280;51342;55.250;37.668;2023-04-19T01:13:21;100421.66;;;8.19;48.73
45369;BME280;51342;55.250;37.668;2023-04-19T01:15:53;100422.19;;;8.15;48.49
45369;BME280;51342;55.250;37.668;2023-04-19T01:18:24;100429.69;;;8.12;48.83
45369;BME280;51342;55.250;37.668;2023-04-19T01:20:56;100425.06;;;8.08;48.61
45369;BME280;51342;55.250;37.668;2023-04-19T01:23:27;100421.34;;;8.04;48.87
45369;BME280;51342;55.250;37.668;2023-04-19T01:26:02;100428.06;;;8.02;48.72
45369;BME280;51342;55.250;37.668;2023-04-19T01:28:33;100425.13;;;7.97;49.02
45369;BME280;51342;55.250;37.668;2023-04-19T01:31:04;100427.47;;;7.94;48.90
45369;BME280;51342;55.250;37.668;2023-04-19T01:33:36;100427.22;;;7.91;48.74
45369;BME280;51342;55.250;37.668;2023-04-19T01:36:07;100429.53;;;7.88;49.16
45369;BME280;51342;55.250;37.668;2023-04-19T01:38:38;100428.41;;;7.85;49.12
45369;BME280;51342;55.250;37.668;2023-04-19T01:41:09;100425.47;;;7.80;48.97
45369;BME280;51342;55.250;37.668;2023-04-19T01:43:41;100419.31;;;7.78;49.01
45369;BME280;51342;55.250;37.668;2023-04-19T01:46:12;100425.09;;;7.76;49.43
45369;BME280;51342;55.250;37.668;2023-04-19T01:48:43;100424.88;;;7.73;49.08
45369;BME280;51342;55.250;37.668;2023-04-19T01:51:15;100424.50;;;7.68;49.07
45369;BME280;51342;55.250;37.668;2023-04-19T01:53:47;100415.50;;;7.63;49.44
45369;BME280;51342;55.250;37.668;2023-04-19T01:56:23;100425.41;;;7.58;49.28
45369;BME280;51342;55.250;37.668;2023-04-19T01:58:55;100419.91;;;7.54;49.25
45369;BME280;51342;55.250;37.668;2023-04-19T02:01:26;100419.41;;;7.48;49.45
45369;BME280;51342;55.250;37.668;2023-04-19T02:03:57;100424.16;;;7.43;49.47
45369;BME280;51342;55.250;37.668;2023-04-19T02:06:30;100423.69;;;7.37;49.63
45369;BME280;51342;55.250;37.668;2023-04-19T02:09:01;100419.84;;;7.32;49.91
45369;BME280;51342;55.250;37.668;2023-04-19T02:11:32;100429.00;;;7.28;49.71
45369;BME280;51342;55.250;37.668;2023-04-19T02:14:03;100416.53;;;7.23;49.90
45369;BME280;51342;55.250;37.668;2023-04-19T02:16:34;100424.88;;;7.20;49.78
45369;BME280;51342;55.250;37.668;2023-04-19T02:19:06;100425.53;;;7.17;50.03
45369;BME280;51342;55.250;37.668;2023-04-19T02:21:37;100431.34;;;7.15;50.01
45369;BME280;51342;55.250;37.668;2023-04-19T02:24:08;100422.34;;;7.10;50.29
45369;BME280;51342;55.250;37.668;2023-04-19T02:26:39;100429.78;;;7.07;50.10
45369;BME280;51342;55.250;37.668;2023-04-19T02:29:10;100427.00;;;7.04;50.16
45369;BME280;51342;55.250;37.668;2023-04-19T02:31:43;100430.19;;;7.01;50.27
45369;BME280;51342;55.250;37.668;2023-04-19T02:34:16;100430.84;;;6.99;50.34
45369;BME280;51342;55.250;37.668;2023-04-19T02:36:48;100431.47;;;6.96;50.21
45369;BME280;51342;55.250;37.668;2023-04-19T02:39:19;100432.13;;;6.94;50.25
45369;BME280;51342;55.250;37.668;2023-04-19T02:41:50;100432.75;;;6.91;50.51
45369;BME280;51342;55.250;37.668;2023-04-19T02:44:21;100432.75;;;6.91;50.63
45369;BME280;51342;55.250;37.668;2023-04-19T02:46:53;100429.28;;;6.90;50.42
45369;BME280;51342;55.250;37.668;2023-04-19T02:49:24;100431.63;;;6.87;50.45
45369;BME280;51342;55.250;37.668;2023-04-19T02:51:56;100430.59;;;6.85;50.55
45369;BME280;51342;55.250;37.668;2023-04-19T02:54:27;100433.69;;;6.81;50.51
45369;BME280;51342;55.250;37.668;2023-04-19T02:56:58;100433.44;;;6.78;50.84
45369;BME280;51342;55.250;37.668;2023-04-19T02:59:29;100439.22;;;6.76;50.90
45369;BME280;51342;55.250;37.668;2023-04-19T03:02:03;100435.59;;;6.74;50.73
45369;BME280;51342;55.250;37.668;2023-04-19T03:04:34;100440.63;;;6.72;50.86
45369;BME280;51342;55.250;37.668;2023-04-19T03:07:07;100445.66;;;6.71;51.06
45369;BME280;51342;55.250;37.668;2023-04-19T03:09:38;100445.50;;;6.69;51.03
45369;BME280;51342;55.250;37.668;2023-04-19T03:12:09;100445.50;;;6.69;51.09
45369;BME280;51342;55.250;37.668;2023-04-19T03:14:41;100452.19;;;6.67;51.11
45369;BME280;51342;55.250;37.668;2023-04-19T03:17:13;100453.88;;;6.67;51.12
45369;BME280;51342;55.250;37.668;2023-04-19T03:19:44;100447.81;;;6.66;51.03
45369;BME280;51342;55.250;37.668;2023-04-19T03:22:15;100451.97;;;6.64;51.21
45369;BME280;51342;55.250;37.668;2023-04-19T03:24:47;100455.28;;;6.63;51.26
45369;BME280;51342;55.250;37.668;2023-04-19T03:27:25;100450.78;;;6.60;51.48
45369;BME280;51342;55.250;37.668;2023-04-19T03:30:02;100454.53;;;6.64;51.41
45369;BME280;51342;55.250;37.668;2023-04-19T03:32:34;100453.75;;;6.65;51.19
45369;BME280;51342;55.250;37.668;2023-04-19T03:35:06;100449.50;;;6.66;51.55
45369;BME280;51342;55.250;37.668;2023-04-19T03:37:37;100456.44;;;6.67;51.32
45369;BME280;51342;55.250;37.668;2023-04-19T03:40:08;100457.22;;;6.66;51.48
45369;BME280;51342;55.250;37.668;2023-04-19T03:42:40;100449.38;;;6.64;51.43
45369;BME280;51342;55.250;37.668;2023-04-19T03:45:18;100451.97;;;6.64;51.69
45369;BME280;51342;55.250;37.668;2023-04-19T03:47:51;100454.53;;;6.64;51.69
45369;BME280;51342;55.250;37.668;2023-04-19T03:50:23;100448.59;;;6.65;51.76
45369;BME280;51342;55.250;37.668;2023-04-19T03:52:57;100451.41;;;6.68;51.76
45369;BME280;51342;55.250;37.668;2023-04-19T03:55:29;100453.22;;;6.69;52.11
45369;BME280;51342;55.250;37.668;2023-04-19T03:58:00;100452.47;;;6.70;51.91
45369;BME280;51342;55.250;37.668;2023-04-19T04:00:40;100457.22;;;6.76;52.09
45369;BME280;51342;55.250;37.668;2023-04-19T04:03:11;100455.78;;;6.79;52.14
45369;BME280;51342;55.250;37.668;2023-04-19T04:05:43;100460.69;;;6.86;51.97
45369;BME280;51342;55.250;37.668;2023-04-19T04:08:14;100454.25;;;6.91;52.08
45369;BME280;51342;55.250;37.668;2023-04-19T04:10:46;100457.47;;;6.99;51.87
45369;BME280;51342;55.250;37.668;2023-04-19T04:13:18;100461.69;;;7.09;51.74
45369;BME280;51342;55.250;37.668;2023-04-19T04:15:55;100457.31;;;7.18;51.69
45369;BME280;51342;55.250;37.668;2023-04-19T04:18:27;100456.81;;;7.22;51.98
45369;BME280;51342;55.250;37.668;2023-04-19T04:20:58;100460.41;;;7.24;52.26
45369;BME280;51342;55.250;37.668;2023-04-19T04:23:32;100456.53;;;7.29;51.86
45369;BME280;51342;55.250;37.668;2023-04-19T04:26:04;100458.97;;;7.38;52.02
45369;BME280;51342;55.250;37.668;2023-04-19T04:28:57;100464.94;;;7.59;51.75
45369;BME280;51342;55.250;37.668;2023-04-19T04:31:29;100454.69;;;7.81;51.56
45369;BME280;51342;55.250;37.668;2023-04-19T04:34:02;100457.34;;;7.92;51.20
45369;BME280;51342;55.250;37.668;2023-04-19T04:36:36;100469.19;;;8.01;51.30
45369;BME280;51342;55.250;37.668;2023-04-19T04:39:07;100468.63;;;8.05;51.36
45369;BME280;51342;55.250;37.668;2023-04-19T04:41:42;100465.00;;;8.13;51.35
45369;BME280;51342;55.250;37.668;2023-04-19T04:44:15;100459.69;;;8.33;50.97
45369;BME280;51342;55.250;37.668;2023-04-19T04:46:48;100463.09;;;8.54;50.80
45369;BME280;51342;55.250;37.668;2023-04-19T04:49:26;100451.75;;;8.74;50.46
45369;BME280;51342;55.250;37.668;2023-04-19T04:51:58;100465.72;;;8.99;50.14
45369;BME280;51342;55.250;37.668;2023-04-19T04:54:34;100466.88;;;9.26;50.04
45369;BME280;51342;55.250;37.668;2023-04-19T04:57:06;100462.38;;;9.36;50.02
45369;BME280;51342;55.250;37.668;2023-04-19T04:59:38;100463.88;;;9.55;49.60
45369;BME280;51342;55.250;37.668;2023-04-19T05:02:09;100465.78;;;9.81;49.36
45369;BME280;51342;55.250;37.668;2023-04-19T05:04:43;100464.06;;;10.05;48.85
45369;BME280;51342;55.250;37.668;2023-04-19T05:07:15;100463.56;;;10.23;48.82
45369;BME280;51342;55.250;37.668;2023-04-19T05:09:48;100465.22;;;10.46;48.60
45369;BME280;51342;55.250;37.668;2023-04-19T05:12:27;100466.69;;;10.67;47.99
45369;BME280;51342;55.250;37.668;2023-04-19T05:14:59;100472.16;;;10.83;48.03
45369;BME280;51342;55.250;37.668;2023-04-19T05:17:32;100477.25;;;10.95;48.02
45369;BME280;51342;55.250;37.668;2023-04-19T05:20:04;100473.75;;;10.95;47.37
45369;BME280;51342;55.250;37.668;2023-04-19T05:22:37;100479.84;;;10.95;47.47
45369;BME280;51342;55.250;37.668;2023-04-19T05:25:12;100472.28;;;10.98;47.65
45369;BME280;51342;55.250;37.668;2023-04-19T05:27:45;100474.69;;;11.08;47.39
45369;BME280;51342;55.250;37.668;2023-04-19T05:30:17;100479.78;;;11.20;46.90
45369;BME280;51342;55.250;37.668;2023-04-19T05:32:50;100482.13;;;11.29;46.72
45369;BME280;51342;55.250;37.668;2023-04-19T05:35:23;100476.47;;;11.48;46.66
45369;BME280;51342;55.250;37.668;2023-04-19T05:37:55;100482.53;;;11.61;45.87
45369;BME280;51342;55.250;37.668;2023-04-19T05:40:28;100486.53;;;11.70;45.62
45369;BME280;51342;55.250;37.668;2023-04-19T05:43:02;100491.41;;;11.78;45.75
45369;BME280;51342;55.250;37.668;2023-04-19T05:45:36;100483.38;;;11.87;45.20
45369;BME280;51342;55.250;37.668;2023-04-19T05:48:09;100487.34;;;11.95;44.87
45369;BME280;51342;55.250;37.668;2023-04-19T05:51:02;100489.03;;;12.08;44.42
45369;BME280;51342;55.250;37.668;2023-04-19T05:54:00;100490.94;;;12.10;43.77
45369;BME280;51342;55.250;37.668;2023-04-19T05:56:33;100494.28;;;12.23;43.60
45369;BME280;51342;55.250;37.668;2023-04-19T05:59:07;100482.50;;;12.28;42.93
45369;BME280;51342;55.250;37.668;2023-04-19T06:01:39;100484.31;;;12.29;43.32
45369;BME280;51342;55.250;37.668;2023-04-19T06:04:14;100484.25;;;12.42;43.24
45369;BME280;51342;55.250;37.668;2023-04-19T06:06:48;100496.31;;;12.55;42.80
45369;BME280;51342;55.250;37.668;2023-04-19T06:09:23;100484.25;;;12.55;42.84
45369;BME280;51342;55.250;37.668;2023-04-19T06:11:56;100488.31;;;12.52;42.41
45369;BME280;51342;55.250;37.668;2023-04-19T06:14:30;100491.59;;;12.62;41.96
45369;BME280;51342;55.250;37.668;2023-04-19T06:17:06;100492.16;;;12.71;42.20
45369;BME280;51342;55.250;37.668;2023-04-19T06:19:41;100494.63;;;12.83;41.64
45369;BME280;51342;55.250;37.668;2023-04-19T06:22:14;100502.06;;;12.92;41.12
45369;BME280;51342;55.250;37.668;2023-04-19T06:24:46;100505.22;;;13.01;40.74
45369;BME280;51342;55.250;37.668;2023-04-19T06:27:18;100498.88;;;13.11;40.59
45369;BME280;51342;55.250;37.668;2023-04-19T06:29:51;100507.06;;;13.32;40.43
45369;BME280;51342;55.250;37.668;2023-04-19T06:32:25;100499.22;;;13.45;39.98
45369;BME280;51342;55.250;37.668;2023-04-19T06:34:59;100501.44;;;13.53;40.04
45369;BME280;51342;55.250;37.668;2023-04-19T06:37:33;100499.09;;;13.58;39.44
45369;BME280;51342;55.250;37.668;2023-04-19T06:40:06;100497.41;;;13.59;39.83
45369;BME280;51342;55.250;37.668;2023-04-19T06:42:41;100500.88;;;13.59;38.67
45369;BME280;51342;55.250;37.668;2023-04-19T06:45:13;100501.69;;;13.58;38.96
45369;BME280;51342;55.250;37.668;2023-04-19T06:47:46;100501.50;;;13.70;39.14
45369;BME280;51342;55.250;37.668;2023-04-19T06:50:21;100509.94;;;13.81;38.69
45369;BME280;51342;55.250;37.668;2023-04-19T06:52:57;100509.94;;;13.81;37.98
45369;BME280;51342;55.250;37.668;2023-04-19T06:55:30;100506.03;;;13.89;37.96
45369;BME280;51342;55.250;37.668;2023-04-19T06:58:03;100499.75;;;14.00;38.56
45369;BME280;51342;55.250;37.668;2023-04-19T07:00:40;100505.06;;;14.01;37.88
45369;BME280;51342;55.250;37.668;2023-04-19T07:03:11;100507.22;;;13.94;37.63
45369;BME280;51342;55.250;37.668;2023-04-19T07:05:48;100505.25;;;13.90;37.93
45369;BME280;51342;55.250;37.668;2023-04-19T07:08:21;100506.09;;;14.05;37.91
45369;BME280;51342;55.250;37.668;2023-04-19T07:10:57;100505.75;;;14.14;37.77
45369;BME280;51342;55.250;37.668;2023-04-19T07:13:29;100502.59;;;14.19;37.75
45369;BME280;51342;55.250;37.668;2023-04-19T07:16:05;100489.72;;;14.22;37.63
45369;BME280;51342;55.250;37.668;2023-04-19T07:18:40;100490.38;;;14.18;37.57
45369;BME280;51342;55.250;37.668;2023-04-19T07:21:16;100489.47;;;14.18;37.56
45369;BME280;51342;55.250;37.668;2023-04-19T07:23:51;100485.53;;;14.24;37.46
45369;BME280;51342;55.250;37.668;2023-04-19T07:26:24;100489.97;;;14.27;36.98
45369;BME280;51342;55.250;37.668;2023-04-19T07:28:58;100493.75;;;14.32;37.21
45369;BME280;51342;55.250;37.668;2023-04-19T07:31:33;100488.72;;;14.35;37.03
45369;BME280;51342;55.250;37.668;2023-04-19T07:34:07;100484.47;;;14.37;36.97
45369;BME280;51342;55.250;37.668;2023-04-19T07:36:42;100492.16;;;14.50;36.96
45369;BME280;51342;55.250;37.668;2023-04-19T07:39:18;100490.31;;;14.64;36.18
45369;BME280;51342;55.250;37.668;2023-04-19T07:41:51;100486.78;;;14.80;35.76
45369;BME280;51342;55.250;37.668;2023-04-19T07:44:28;100486.47;;;14.90;35.59
45369;BME280;51342;55.250;37.668;2023-04-19T07:47:03;100488.34;;;14.93;35.56
45369;BME280;51342;55.250;37.668;2023-04-19T07:49:37;100485.75;;;14.93;35.43
45369;BME280;51342;55.250;37.668;2023-04-19T07:52:13;100488.69;;;14.99;35.48
45369;BME280;51342;55.250;37.668;2023-04-19T07:54:49;100483.72;;;15.03;35.53
45369;BME280;51342;55.250;37.668;2023-04-19T07:57:25;100489.00;;;15.05;35.70
45369;BME280;51342;55.250;37.668;2023-04-19T07:59:59;100489.81;;;15.04;35.57
45369;BME280;51342;55.250;37.668;2023-04-19T08:02:35;100478.63;;;15.06;34.99
45369;BME280;51342;55.250;37.668;2023-04-19T08:05:08;100487.53;;;15.10;34.44
45369;BME280;51342;55.250;37.668;2023-04-19T08:07:43;100475.03;;;15.21;34.73
45369;BME280;51342;55.250;37.668;2023-04-19T08:10:18;100479.00;;;15.30;34.58
45369;BME280;51342;55.250;37.668;2023-04-19T08:12:57;100477.13;;;15.28;34.70
45369;BME280;51342;55.250;37.668;2023-04-19T08:15:35;100477.44;;;15.34;34.45
45369;BME280;51342;55.250;37.668;2023-04-19T08:18:10;100464.78;;;15.42;34.21
45369;BME280;51342;55.250;37.668;2023-04-19T08:20:48;100472.13;;;15.49;34.60
45369;BME280;51342;55.250;37.668;2023-04-19T08:23:25;100481.72;;;15.50;34.01
45369;BME280;51342;55.250;37.668;2023-04-19T08:26:01;100466.75;;;15.46;33.44
45369;BME280;51342;55.250;37.668;2023-04-19T08:28:35;100473.66;;;15.45;33.63
45369;BME280;51342;55.250;37.668;2023-04-19T08:31:09;100473.91;;;15.50;33.19
45369;BME280;51342;55.250;37.668;2023-04-19T08:33:44;100476.66;;;15.53;32.20
45369;BME280;51342;55.250;37.668;2023-04-19T08:36:18;100475.63;;;15.49;32.38
45369;BME280;51342;55.250;37.668;2023-04-19T08:38:54;100468.94;;;15.54;32.17
45369;BME280;51342;55.250;37.668;2023-04-19T08:41:31;100468.41;;;15.61;32.58
45369;BME280;51342;55.250;37.668;2023-04-19T08:44:09;100475.91;;;15.72;31.94
45369;BME280;51342;55.250;37.668;2023-04-19T08:46:45;100468.56;;;15.82;32.18
45369;BME280;51342;55.250;37.668;2023-04-19T08:49:22;100465.44;;;15.89;31.65
45369;BME280;51342;55.250;37.668;2023-04-19T08:51:57;100465.34;;;15.88;31.66
45369;BME280;51342;55.250;37.668;2023-04-19T08:54:36;100460.47;;;15.94;31.58
45369;BME280;51342;55.250;37.668;2023-04-19T08:57:09;100460.53;;;15.96;31.17
45369;BME280;51342;55.250;37.668;2023-04-19T08:59:45;100457.53;;;16.06;31.27
45369;BME280;51342;55.250;37.668;2023-04-19T09:02:25;100459.53;;;16.11;30.75
45369;BME280;51342;55.250;37.668;2023-04-19T09:04:59;100456.22;;;16.15;30.49
45369;BME280;51342;55.250;37.668;2023-04-19T09:07:35;100448.78;;;16.23;30.99
45369;BME280;51342;55.250;37.668;2023-04-19T09:10:10;100450.41;;;16.21;30.10
45369;BME280;51342;55.250;37.668;2023-04-19T09:13:08;100455.72;;;16.23;30.17
45369;BME280;51342;55.250;37.668;2023-04-19T09:15:44;100442.94;;;16.29;30.37
45369;BME280;51342;55.250;37.668;2023-04-19T09:18:18;100436.75;;;16.27;30.32
45369;BME280;51342;55.250;37.668;2023-04-19T09:20:58;100436.84;;;16.28;30.38
45369;BME280;51342;55.250;37.668;2023-04-19T09:23:45;100428.22;;;16.31;29.98
45369;BME280;51342;55.250;37.668;2023-04-19T09:26:22;100437.78;;;16.30;29.82
45369;BME280;51342;55.250;37.668;2023-04-19T09:31:37;100436.41;;;16.38;29.83
45369;BME280;51342;55.250;37.668;2023-04-19T09:34:13;100423.06;;;16.32;29.25
45369;BME280;51342;55.250;37.668;2023-04-19T09:36:48;100425.78;;;16.34;29.67
45369;BME280;51342;55.250;37.668;2023-04-19T09:39:30;100426.84;;;16.39;29.57
45369;BME280;51342;55.250;37.668;2023-04-19T09:42:05;100431.06;;;16.35;29.05
45369;BME280;51342;55.250;37.668;2023-04-19T09:44:39;100429.28;;;16.34;28.80
45369;BME280;51342;55.250;37.668;2023-04-19T09:47:25;100424.59;;;16.47;29.31
45369;BME280;51342;55.250;37.668;2023-04-19T09:52:38;100430.72;;;16.66;29.09
45369;BME280;51342;55.250;37.668;2023-04-19T09:55:16;100422.53;;;16.59;29.19
45369;BME280;51342;55.250;37.668;2023-04-19T09:57:54;100419.09;;;16.60;29.61
45369;BME280;51342;55.250;37.668;2023-04-19T10:00:32;100427.81;;;16.60;29.29
45369;BME280;51342;55.250;37.668;2023-04-19T10:03:09;100427.34;;;16.69;29.06
45369;BME280;51342;55.250;37.668;2023-04-19T10:05:43;100428.03;;;16.65;28.47
45369;BME280;51342;55.250;37.668;2023-04-19T10:08:18;100424.47;;;16.63;28.60
45369;BME280;51342;55.250;37.668;2023-04-19T10:10:51;100419.25;;;16.63;28.78
45369;BME280;51342;55.250;37.668;2023-04-19T10:13:26;100428.72;;;16.61;28.62
45369;BME280;51342;55.250;37.668;2023-04-19T10:16:03;100421.72;;;16.60;28.73
45369;BME280;51342;55.250;37.668;2023-04-19T10:18:39;100416.63;;;16.63;29.00
45369;BME280;51342;55.250;37.668;2023-04-19T10:21:13;100422.28;;;16.72;29.10
45369;BME280;51342;55.250;37.668;2023-04-19T10:23:47;100423.25;;;16.74;29.31
45369;BME280;51342;55.250;37.668;2023-04-19T10:26:21;100420.72;;;16.76;29.39
45369;BME280;51342;55.250;37.668;2023-04-19T10:28:56;100410.53;;;16.82;29.40
45369;BME280;51342;55.250;37.668;2023-04-19T10:31:30;100414.03;;;16.82;29.30
45369;BME280;51342;55.250;37.668;2023-04-19T10:34:11;100411.63;;;16.87;29.31
45369;BME280;51342;55.250;37.668;2023-04-19T10:36:48;100406.66;;;16.93;29.47
45369;BME280;51342;55.250;37.668;2023-04-19T10:39:39;100409.53;;;16.99;29.71
45369;BME280;51342;55.250;37.668;2023-04-19T10:42:13;100401.75;;;17.01;29.20
45369;BME280;51342;55.250;37.668;2023-04-19T10:47:45;100411.69;;;16.88;28.01
45369;BME280;51342;55.250;37.668;2023-04-19T10:50:19;100409.06;;;16.88;28.35
45369;BME280;51342;55.250;37.668;2023-04-19T10:53:35;100399.03;;;16.98;28.54
45369;BME280;51342;55.250;37.668;2023-04-19T10:55:52;100390.75;;;17.08;28.76
45369;BME280;51342;55.250;37.668;2023-04-19T10:58:26;100403.03;;;17.10;28.69
45369;BME280;51342;55.250;37.668;2023-04-19T11:09:31;100394.72;;;17.00;28.54
45369;BME280;51342;55.250;37.668;2023-04-19T11:12:11;100386.16;;;17.02;28.71
45369;BME280;51342;55.250;37.668;2023-04-19T11:14:53;100402.53;;;16.98;28.44
45369;BME280;51342;55.250;37.668;2023-04-19T11:17:29;100394.53;;;16.95;28.59
45369;BME280;51342;55.250;37.668;2023-04-19T11:20:08;100394.28;;;16.89;28.28
45369;BME280;51342;55.250;37.668;2023-04-19T11:22:47;100392.22;;;16.82;27.68
45369;BME280;51342;55.250;37.668;2023-04-19T11:25:25;100394.69;;;16.79;27.88
45369;BME280;51342;55.250;37.668;2023-04-19T11:28:04;100387.94;;;16.84;27.90
45369;BME280;51342;55.250;37.668;2023-04-19T11:30:37;100377.69;;;16.88;28.31
45369;BME280;51342;55.250;37.668;2023-04-19T11:33:13;100387.25;;;16.88;27.83
45369;BME280;51342;55.250;37.668;2023-04-19T11:35:51;100376.34;;;16.77;28.13
45369;BME280;51342;55.250;37.668;2023-04-19T11:38:29;100380.75;;;16.78;27.94
45369;BME280;51342;55.250;37.668;2023-04-19T11:41:03;100377.44;;;16.82;28.03
45369;BME280;51342;55.250;37.668;2023-04-19T11:43:43;100374.09;;;16.85;28.00
45369;BME280;51342;55.250;37.668;2023-04-19T11:46:20;100375.91;;;16.87;28.23
45369;BME280;51342;55.250;37.668;2023-04-19T11:48:58;100361.63;;;17.00;28.36
45369;BME280;51342;55.250;37.668;2023-04-19T11:51:30;100367.00;;;17.03;28.29
45369;BME280;51342;55.250;37.668;2023-04-19T11:54:12;100360.25;;;17.08;28.18
45369;BME280;51342;55.250;37.668;2023-04-19T11:57:04;100358.78;;;17.15;28.50
45369;BME280;51342;55.250;37.668;2023-04-19T11:59:50;100354.50;;;17.17;28.37
45369;BME280;51342;55.250;37.668;2023-04-19T12:02:46;100352.72;;;17.16;28.43
45369;BME280;51342;55.250;37.668;2023-04-19T12:05:22;100349.31;;;17.18;28.61
45369;BME280;51342;55.250;37.668;2023-04-19T12:10:30;100345.97;;;17.21;28.18
45369;BME280;51342;55.250;37.668;2023-04-19T12:13:17;100347.88;;;17.25;28.25
45369;BME280;51342;55.250;37.668;2023-04-19T12:15:51;100346.66;;;17.17;27.53
45369;BME280;51342;55.250;37.668;2023-04-19T12:18:49;100338.75;;;17.15;27.62
45369;BME280;51342;55.250;37.668;2023-04-19T12:21:23;100339.50;;;17.13;27.86
45369;BME280;51342;55.250;37.668;2023-04-19T12:24:00;100328.16;;;17.12;27.51
45369;BME280;51342;55.250;37.668;2023-04-19T12:26:34;100354.13;;;17.08;27.51
45369;BME280;51342;55.250;37.668;2023-04-19T12:29:13;100342.66;;;17.04;27.04
45369;BME280;51342;55.250;37.668;2023-04-19T12:31:49;100346.75;;;16.98;26.77
45369;BME280;51342;55.250;37.668;2023-04-19T12:34:25;100344.06;;;16.96;26.30
45369;BME280;51342;55.250;37.668;2023-04-19T12:37:02;100350.69;;;16.88;26.61
45369;BME280;51342;55.250;37.668;2023-04-19T12:39:36;100339.06;;;16.81;26.94
45369;BME280;51342;55.250;37.668;2023-04-19T12:42:11;100325.13;;;16.81;26.92
45369;BME280;51342;55.250;37.668;2023-04-19T12:44:45;100335.69;;;16.84;26.72
45369;BME280;51342;55.250;37.668;2023-04-19T12:47:21;100339.19;;;16.84;26.55
45369;BME280;51342;55.250;37.668;2023-04-19T12:49:55;100341.06;;;16.87;26.78
45369;BME280;51342;55.250;37.668;2023-04-19T12:52:32;100330.66;;;16.88;26.26
45369;BME280;51342;55.250;37.668;2023-04-19T12:55:08;100327.03;;;16.85;26.43
45369;BME280;51342;55.250;37.668;2023-04-19T12:57:44;100325.31;;;16.85;26.53
45369;BME280;51342;55.250;37.668;2023-04-19T13:00:18;100321.81;;;16.85;26.61
45369;BME280;51342;55.250;37.668;2023-04-19T13:02:52;100328.88;;;16.87;26.40
45369;BME280;51342;55.250;37.668;2023-04-19T13:05:25;100331.19;;;16.80;26.32
45369;BME280;51342;55.250;37.668;2023-04-19T13:08:02;100317.47;;;16.66;26.58
45369;BME280;51342;55.250;37.668;2023-04-19T13:10:39;100319.72;;;16.57;26.67
45369;BME280;51342;55.250;37.668;2023-04-19T13:13:13;100324.69;;;16.51;27.10
45369;BME280;51342;55.250;37.668;2023-04-19T13:15:50;100323.06;;;16.54;27.26
45369;BME280;51342;55.250;37.668;2023-04-19T13:18:25;100317.22;;;16.60;27.11
45369;BME280;51342;55.250;37.668;2023-04-19T13:21:01;100319.09;;;16.62;27.06
45369;BME280;51342;55.250;37.668;2023-04-19T13:23:37;100318.44;;;16.68;27.14
45369;BME280;51342;55.250;37.668;2023-04-19T13:26:11;100323.69;;;16.68;27.23
45369;BME280;51342;55.250;37.668;2023-04-19T13:28:47;100318.50;;;16.69;27.16
45369;BME280;51342;55.250;37.668;2023-04-19T13:31:20;100317.63;;;16.69;27.00
45369;BME280;51342;55.250;37.668;2023-04-19T13:33:57;100315.44;;;16.59;26.81
45369;BME280;51342;55.250;37.668;2023-04-19T13:36:34;100324.59;;;16.49;26.95
45369;BME280;51342;55.250;37.668;2023-04-19T13:39:08;100319.94;;;16.42;26.98